Airfield :







YOU CAN JOIN US ON...

 
LOGIN :

Register | Disclaimer

   EN    FR    IT 

 









Legend :    VFR   Marginal VFR   IFR   Intensive IFR   Very Intensive IFR
Visi :
Ceiling :
>= 8 km
>= 3000ft
5 to 8 km
1000 to 3000 ft
1500m to 5 km
500 to 1000 ft
800 to 1500m
200 to 500 ft
< 800m
< 200 ft
Symbols :   Thunderstorms  Fog  Heavy snow  Heavy precipitations  Wind > 20 kt






- Airport Elevation : 160 ft
- IATA code : YYG


CYYG - Charlottetown

CURRENT METAR :
  • 090600Z 04011KT 3SM -SHRA SCT004 OVC032 13/13 A2992 RMK SF3SC5 CVCTV CLD EMBD SLP136

EXPIRED METARs :
  • 090541Z 02010KT 3SM SHRA SCT004 OVC028 13/13 A2993 RMK SF3SC5 CVCTV CLD EMBD SLP139
  • 090500Z 05009KT 8SM -SHRA OVC024 13/13 A2992 RMK SC8 CVCTV CLD EMBD PRESFR SLP136
  • 090400Z 09008KT 8SM -SHRA OVC036 14/13 A2995 RMK SC8 CVCTV CLD EMBD SLP145

TAF TAF CYYG
Valid from the 09 at 06:00 until the 09 at 18:00 UTC


090540Z 0906/0918 08010KT 3SM -RA BR BKN005 OVC020
TEMPO 0906/0907 6SM -RA BR SCT005 OVC020
FM090700 08010G20KT 2SM -RA BR OVC005
TEMPO 0907/0909 6SM -RA BR OVC007
FM090900 09012G22KT 2SM SHRA BR OVC004
TEMPO 0909/0914 6SM -RA BR OVC007
FM091400 08015G25KT 6SM BR OVC012
TEMPO 0914/0917 5SM -SHRA -DZ BR OVC008
FM091700 06015G25KT P6SM OVC025
TEMPO 0917/0918 4SM -RA BR OVC020 RMK NXT FCST BY 091200Z
CZQM FIR / North America



MET'MAP, your aeronautical weather chart ! - Copyright ORBIFLY December 2007 - Disclaimer

ORBIFLY MET'MAP TEAM :

Programming & Development : Alexandra Zaïnal
Original concept : Baudouin d'Aumeries
Technical & hardware support : Manuel Goepfert
Assistance : Marc-Olivier Méhu




SOURCES & CREDITS :

   NOAA